Time;durP1;ratioP1;P1;durP2;ratioP2;P2;SDS_P1;SDS_P2;PMS_P1;PMS_P2;Temp;Humidity;BMP_temperature;BMP_pressure;BME280_temperature;BME280_humidity;BME280_pressure;Samples;Min_cycle;Max_cycle;Signal;HPM_P1;HPM_P2
2022/02/06 00:02:32;;;;;;;2.60;1.47;;;8.80;97.80;;;;;;4979237;28;20502;-87
2022/02/06 00:05:07;;;;;;;2.77;1.20;;;9.70;99.50;;;;;;4961799;28;20462;-87
2022/02/06 00:07:55;;;;;;;3.93;1.33;;;9.50;99.90;;;;;;4970687;28;20461;-86
2022/02/06 00:10:30;;;;;;;1.80;1.07;;;9.50;99.90;;;;;;4969454;28;20556;-86
2022/02/06 00:13:08;;;;;;;1.43;1.17;;;9.50;99.90;;;;;;4969218;28;21032;-85
2022/02/06 00:15:47;;;;;;;3.03;1.67;;;9.50;99.90;;;;;;4973558;28;20935;-86
2022/02/06 00:18:24;;;;;;;2.20;1.10;;;9.30;99.90;;;;;;4985442;28;20481;-87
2022/02/06 00:20:58;;;;;;;4.43;1.50;;;9.50;99.90;;;;;;4978095;28;20466;-84
2022/02/06 00:23:32;;;;;;;1.70;1.30;;;9.80;99.90;;;;;;4976180;28;20464;-87
2022/02/06 00:26:23;;;;;;;2.27;1.40;;;9.80;99.90;;;;;;4983803;28;20456;-88
2022/02/06 00:29:11;;;;;;;5.67;1.50;;;10.10;99.90;;;;;;4970593;28;20460;-88
2022/02/06 00:32:30;;;;;;;5.97;1.40;;;9.30;99.90;;;;;;4978028;28;20509;-87
2022/02/06 00:43:11;;;;;;;2.63;1.33;;;9.70;99.40;;;;;;4977001;28;20615;-84
2022/02/06 00:45:44;;;;;;;2.40;1.27;;;9.40;99.30;;;;;;4968150;28;20486;-86
2022/02/06 00:48:27;;;;;;;4.73;1.57;;;9.20;99.80;;;;;;4963257;28;20938;-85
2022/02/06 00:51:07;;;;;;;1.10;1.00;;;9.50;99.70;;;;;;4993090;28;20473;-84
2022/02/06 00:53:37;;;;;;;7.00;1.50;;;9.60;99.80;;;;;;4982498;28;20459;-84
2022/02/06 00:56:11;;;;;;;3.53;1.40;;;9.70;99.50;;;;;;4961509;28;20464;-83
2022/02/06 00:58:38;;;;;;;2.40;1.20;;;9.40;99.70;;;;;;4964588;28;20483;-84
2022/02/06 01:01:07;;;;;;;2.00;1.27;;;9.30;99.90;;;;;;4959737;28;20485;-85
2022/02/06 01:03:39;;;;;;;3.50;1.47;;;9.70;99.90;;;;;;4969224;28;20459;-85
2022/02/06 01:06:07;;;;;;;2.73;1.13;;;10.00;99.30;;;;;;4960126;28;20460;-84
2022/02/06 01:08:34;;;;;;;5.10;1.77;;;10.10;99.30;;;;;;4958390;28;20464;-85
2022/02/06 01:11:09;;;;;;;2.10;1.30;;;10.00;98.80;;;;;;4963957;28;20572;-86
2022/02/06 01:17:00;;;;;;;4.73;2.00;;;9.30;99.50;;;;;;4951438;28;20464;-86
2022/02/06 01:19:39;;;;;;;4.10;1.90;;;9.60;99.60;;;;;;4972158;28;20485;-84
2022/02/06 01:22:13;;;;;;;5.23;1.30;;;9.50;99.70;;;;;;4971378;28;20480;-84
2022/02/06 01:30:17;;;;;;;2.87;1.93;;;9.90;99.60;;;;;;4965881;28;20474;-85
2022/02/06 01:33:11;;;;;;;3.13;1.30;;;9.70;99.50;;;;;;4961984;28;20541;-84
2022/02/06 01:36:00;;;;;;;1.90;1.40;;;9.90;99.50;;;;;;4974141;28;20513;-83
2022/02/06 01:38:35;;;;;;;3.33;1.30;;;9.70;99.90;;;;;;4963243;28;20491;-84
2022/02/06 01:41:37;;;;;;;2.00;1.43;;;9.80;99.70;;;;;;4973219;28;20539;-85
2022/02/06 01:44:08;;;;;;;3.43;1.90;;;9.70;99.90;;;;;;4971424;28;20464;-87
2022/02/06 02:00:55;;;;;;;4.90;2.20;;;10.00;99.90;;;;;;4967290;28;20477;-84
2022/02/06 02:03:44;;;;;;;4.87;1.30;;;9.80;99.90;;;;;;4965144;28;20464;-86
2022/02/06 02:12:17;;;;;;;4.40;2.03;;;10.30;99.90;;;;;;4965926;28;20501;-85
2022/02/06 02:15:19;;;;;;;3.80;1.43;;;9.90;99.90;;;;;;4963537;28;20456;-85
2022/02/06 02:18:17;;;;;;;3.13;1.50;;;10.20;99.80;;;;;;4962689;28;20575;-86
2022/02/06 02:49:13;;;;;;;4.13;1.60;;;10.00;98.30;;;;;;4963994;28;20898;-86
2022/02/06 02:51:56;;;;;;;4.10;1.97;;;9.90;99.30;;;;;;4975115;28;20481;-84
2022/02/06 02:54:27;;;;;;;5.63;1.70;;;9.80;99.90;;;;;;4964209;28;20460;-84
2022/02/06 02:57:15;;;;;;;4.63;2.03;;;9.60;99.90;;;;;;4965538;28;20460;-84
2022/02/06 03:02:17;;;;;;;4.07;1.97;;;9.80;99.90;;;;;;4968539;28;20479;-81
2022/02/06 03:04:52;;;;;;;2.87;1.50;;;9.20;99.90;;;;;;4971454;29;21393;-83
2022/02/06 03:07:19;;;;;;;2.47;1.27;;;9.90;99.80;;;;;;4972258;28;20461;-81
2022/02/06 03:10:00;;;;;;;2.30;1.37;;;9.90;99.50;;;;;;4971085;29;20527;-82
2022/02/06 03:12:36;;;;;;;2.80;1.60;;;10.20;98.20;;;;;;4971904;28;20464;-83
2022/02/06 03:15:20;;;;;;;9.33;2.03;;;10.10;97.90;;;;;;4980449;28;20820;-82
2022/02/06 03:18:01;;;;;;;4.70;1.50;;;10.00;98.50;;;;;;4968123;28;20486;-83
2022/02/06 03:20:34;;;;;;;2.97;1.80;;;9.80;99.50;;;;;;4975371;28;21089;-83
2022/02/06 03:23:05;;;;;;;4.20;1.83;;;9.60;99.90;;;;;;4964818;28;20461;-85
2022/02/06 03:25:37;;;;;;;3.43;1.50;;;10.30;99.80;;;;;;4969935;28;20537;-84
2022/02/06 03:28:10;;;;;;;4.20;1.77;;;10.10;99.30;;;;;;4968949;28;20532;-84
2022/02/06 03:30:42;;;;;;;3.20;1.90;;;9.90;99.90;;;;;;4968537;28;20473;-84
2022/02/06 03:33:10;;;;;;;4.10;1.70;;;9.80;99.90;;;;;;4968869;28;20468;-84
2022/02/06 03:35:47;;;;;;;4.93;1.70;;;9.80;99.90;;;;;;4967915;28;20469;-83
2022/02/06 03:38:16;;;;;;;4.20;1.87;;;9.70;99.90;;;;;;4979947;28;20487;-84
2022/02/06 03:41:01;;;;;;;3.37;1.53;;;10.10;99.90;;;;;;4968925;28;20465;-83
2022/02/06 03:43:50;;;;;;;7.30;2.07;;;10.70;99.90;;;;;;4983789;28;20465;-84
2022/02/06 03:46:31;;;;;;;2.07;1.53;;;9.60;99.90;;;;;;4983094;28;20457;-85
2022/02/06 03:49:28;;;;;;;2.47;1.33;;;9.40;99.90;;;;;;4980358;28;20492;-85
2022/02/06 03:51:58;;;;;;;3.70;1.00;;;9.60;99.90;;;;;;4968343;28;20552;-85
2022/02/06 03:54:28;;;;;;;1.83;1.47;;;10.10;99.90;;;;;;4970470;28;20545;-84
2022/02/06 03:56:58;;;;;;;3.83;1.40;;;9.60;99.90;;;;;;4965582;28;20533;-83
2022/02/06 03:59:30;;;;;;;3.07;2.17;;;9.50;99.90;;;;;;4970676;28;20484;-85
2022/02/06 04:01:58;;;;;;;4.90;1.73;;;9.30;99.90;;;;;;4957198;28;20497;-82
2022/02/06 04:04:37;;;;;;;4.50;1.27;;;9.40;99.90;;;;;;4968769;28;20525;-84
2022/02/06 04:07:08;;;;;;;4.17;1.67;;;9.30;99.90;;;;;;4980241;28;20468;-83
2022/02/06 04:09:43;;;;;;;3.50;1.40;;;9.40;99.90;;;;;;4963448;28;20485;-84
2022/02/06 04:12:18;;;;;;;3.27;1.30;;;9.00;99.90;;;;;;4963366;28;21278;-82
2022/02/06 04:18:06;;;;;;;4.10;1.50;;;9.30;99.90;;;;;;4955816;28;20468;-84
2022/02/06 04:20:36;;;;;;;2.90;1.20;;;9.20;99.90;;;;;;4967130;28;20479;-82
2022/02/06 04:23:09;;;;;;;1.20;1.10;;;9.20;99.90;;;;;;4967348;28;20469;-81
2022/02/06 04:25:44;;;;;;;2.80;1.43;;;9.50;99.90;;;;;;4968233;28;20448;-85
2022/02/06 04:28:38;;;;;;;3.20;2.33;;;9.20;99.90;;;;;;4968484;28;21430;-83
2022/02/06 04:31:14;;;;;;;5.37;1.33;;;9.30;99.90;;;;;;4983407;28;20494;-85
2022/02/06 04:33:51;;;;;;;2.43;1.20;;;9.20;99.90;;;;;;4969439;28;20453;-85
2022/02/06 04:36:21;;;;;;;1.50;1.40;;;9.40;99.90;;;;;;4961909;28;20441;-88
2022/02/06 04:39:12;;;;;;;4.60;1.53;;;9.40;99.90;;;;;;4984955;28;20480;-85
2022/02/06 04:42:10;;;;;;;2.23;1.20;;;9.40;99.90;;;;;;4959730;28;20593;-83
2022/02/06 04:53:17;;;;;;;3.70;1.30;;;9.60;99.90;;;;;;4966695;28;20485;-87
2022/02/06 05:31:40;;;;;;;4.60;1.80;;;9.50;99.90;;;;;;4977186;28;20524;-87
2022/02/06 05:34:46;;;;;;;1.30;0.90;;;9.50;99.90;;;;;;4958083;28;20567;-89
2022/02/06 05:38:33;;;;;;;3.43;1.20;;;9.40;99.90;;;;;;4958991;28;20453;-87
2022/02/06 05:56:31;;;;;;;;;;;;;;;;;;;;;
2022/02/06 06:07:42;;;;;;;2.00;1.00;;;9.40;99.90;;;;;;4928260;29;20466;-89
2022/02/06 06:18:56;;;;;;;0.70;0.70;;;9.60;99.90;;;;;;4833744;29;20553;-87
2022/02/06 06:22:10;;;;;;;2.20;0.83;;;9.30;99.90;;;;;;4832106;29;20446;-86
2022/02/06 06:29:54;;;;;;;;;;;;;;;;;;;;;
2022/02/06 06:33:05;;;;;;;0.70;0.53;;;9.50;99.90;;;;;;4800124;29;20492;-87
2022/02/06 06:35:58;;;;;;;0.77;0.70;;;9.10;99.90;;;;;;4796685;29;20518;-87
2022/02/06 06:45:03;;;;;;;;;;;;;;;;;;;;;
2022/02/06 06:52:04;;;;;;;1.53;0.80;;;9.40;99.90;;;;;;4949158;28;20464;-84
2022/02/06 06:56:07;;;;;;;;;;;;;;;;;;;;;
2022/02/06 07:18:55;;;;;;;1.33;0.97;;;9.70;99.90;;;;;;4874772;29;20453;-84
2022/02/06 07:22:39;;;;;;;0.93;0.60;;;9.50;99.90;;;;;;4853635;29;20476;-85
2022/02/06 07:26:19;;;;;;;0.70;0.70;;;9.60;99.90;;;;;;4857912;29;20466;-86
2022/02/06 07:37:11;;;;;;;;;;;;;;;;;;;;;
2022/02/06 08:07:08;;;;;;;1.13;0.50;;;9.80;99.90;;;;;;4937403;28;20479;-88
2022/02/06 08:18:10;;;;;;;1.70;0.60;;;9.80;99.90;;;;;;4965703;28;20492;-85
2022/02/06 08:21:16;;;;;;;1.03;0.50;;;9.60;99.90;;;;;;4899219;28;20504;-84
2022/02/06 08:25:03;;;;;;;0.40;0.40;;;9.80;99.90;;;;;;4917699;29;20620;-85
2022/02/06 11:13:32;;;;;;;0.70;0.40;;;9.10;99.90;;;;;;2417287;23;20945;-85
2022/02/06 11:16:15;;;;;;;0.37;0.37;;;9.40;99.90;;;;;;4979583;28;20507;-85
2022/02/06 11:18:54;;;;;;;0.37;0.33;;;9.40;99.90;;;;;;4974331;28;20484;-86
2022/02/06 11:21:22;;;;;;;0.43;0.43;;;9.10;99.90;;;;;;4962936;28;20459;-85
2022/02/06 11:23:52;;;;;;;0.43;0.40;;;9.10;99.90;;;;;;4958399;28;21052;-85
2022/02/06 11:26:31;;;;;;;0.40;0.40;;;9.10;99.90;;;;;;4945800;29;20461;-85
2022/02/06 11:29:00;;;;;;;0.40;0.33;;;9.10;99.90;;;;;;4946376;29;20488;-86
2022/02/06 11:31:29;;;;;;;0.80;0.60;;;9.70;99.90;;;;;;4952388;29;20465;-84
2022/02/06 11:33:58;;;;;;;0.50;0.50;;;9.80;99.90;;;;;;4956482;29;20481;-84
2022/02/06 11:45:28;;;;;;;0.40;0.40;;;9.10;99.90;;;;;;4959908;28;20515;-85
2022/02/06 11:48:00;;;;;;;0.50;0.50;;;9.20;99.90;;;;;;4945226;29;20470;-85
2022/02/06 11:50:29;;;;;;;0.50;0.50;;;9.20;99.90;;;;;;4950077;29;20463;-85
2022/02/06 11:52:58;;;;;;;0.60;0.60;;;9.20;99.90;;;;;;4958165;29;20469;-83
2022/02/06 11:55:39;;;;;;;0.63;0.50;;;9.00;99.90;;;;;;4957937;29;20998;-85
2022/02/06 11:58:29;;;;;;;1.33;0.50;;;9.20;99.90;;;;;;4964169;28;20458;-85
2022/02/06 12:01:08;;;;;;;1.07;0.60;;;9.10;99.90;;;;;;4953124;29;20484;-83
2022/02/06 12:03:52;;;;;;;1.20;0.87;;;9.20;99.90;;;;;;4959794;28;20481;-83
2022/02/06 12:06:37;;;;;;;0.50;0.50;;;9.00;99.90;;;;;;4958805;29;20475;-85
2022/02/06 12:09:04;;;;;;;0.50;0.50;;;8.80;99.90;;;;;;4959247;29;20971;-85
2022/02/06 12:11:34;;;;;;;0.50;0.50;;;8.90;99.90;;;;;;4947874;29;20975;-84
2022/02/06 12:14:25;;;;;;;0.60;0.60;;;8.90;99.90;;;;;;4962044;28;20520;-84
2022/02/06 12:20:10;;;;;;;0.77;0.43;;;9.20;99.90;;;;;;4960237;29;20485;-86
2022/02/06 12:22:42;;;;;;;0.50;0.40;;;9.20;99.90;;;;;;4944160;29;20477;-85
2022/02/06 12:25:20;;;;;;;1.43;0.60;;;9.00;99.90;;;;;;4945262;28;20481;-83
2022/02/06 12:27:49;;;;;;;1.73;0.47;;;9.10;99.90;;;;;;4946425;28;20453;-84
2022/02/06 12:30:25;;;;;;;0.90;0.60;;;9.00;99.90;;;;;;4944321;29;20470;-85
2022/02/06 12:33:11;;;;;;;0.60;0.50;;;9.00;99.90;;;;;;4948863;28;20513;-85
2022/02/06 12:38:28;;;;;;;2.63;0.70;;;9.30;99.90;;;;;;4962021;28;20470;-85
2022/02/06 12:40:55;;;;;;;0.60;0.50;;;9.20;99.90;;;;;;4957687;29;20489;-84
2022/02/06 12:43:28;;;;;;;3.10;0.50;;;9.10;99.90;;;;;;4960698;29;20461;-86
2022/02/06 12:45:55;;;;;;;0.70;0.47;;;9.30;99.90;;;;;;4962107;28;20468;-84
2022/02/06 12:48:23;;;;;;;0.70;0.40;;;9.30;99.90;;;;;;4961973;28;20551;-86
2022/02/06 12:50:51;;;;;;;0.40;0.40;;;9.40;99.90;;;;;;4962625;29;20469;-85
2022/02/06 12:53:18;;;;;;;0.97;0.50;;;9.40;99.90;;;;;;4957609;28;20471;-84
2022/02/06 12:55:46;;;;;;;0.70;0.50;;;9.50;99.90;;;;;;4957006;28;20457;-86
2022/02/06 12:58:16;;;;;;;1.93;0.80;;;9.30;99.90;;;;;;4963644;28;20905;-86
2022/02/06 13:00:50;;;;;;;0.63;0.57;;;9.50;99.90;;;;;;4966683;29;20461;-86
2022/02/06 13:03:30;;;;;;;2.00;0.60;;;9.50;99.90;;;;;;4971360;28;20710;-84
2022/02/06 13:05:58;;;;;;;0.60;0.47;;;9.30;99.90;;;;;;4958586;29;20457;-83
2022/02/06 13:08:31;;;;;;;0.60;0.50;;;10.00;99.90;;;;;;4956430;29;20757;-84
2022/02/06 13:11:07;;;;;;;0.93;0.60;;;9.80;99.90;;;;;;4968553;28;21031;-84
2022/02/06 13:19:08;;;;;;;0.60;0.53;;;10.60;99.90;;;;;;4970633;28;20797;-86
2022/02/06 13:24:13;;;;;;;1.47;1.20;;;9.80;99.90;;;;;;4972508;28;20562;-85
2022/02/06 13:27:03;;;;;;;2.97;1.43;;;10.00;99.90;;;;;;4972269;29;20432;-85
2022/02/06 13:29:39;;;;;;;1.60;0.90;;;10.00;99.90;;;;;;4969676;29;20447;-84
2022/02/06 13:32:26;;;;;;;2.27;2.00;;;10.00;99.90;;;;;;4971421;29;20462;-84
2022/02/06 13:35:16;;;;;;;4.43;1.10;;;10.00;99.90;;;;;;4974233;28;20534;-85
2022/02/06 13:37:56;;;;;;;1.80;1.20;;;10.00;99.90;;;;;;4961086;28;20502;-85
2022/02/06 13:40:28;;;;;;;1.80;0.83;;;9.90;99.90;;;;;;4959972;29;20469;-86
2022/02/06 13:43:05;;;;;;;0.67;0.67;;;9.80;99.90;;;;;;4954707;29;20876;-84
2022/02/06 13:45:39;;;;;;;2.87;0.73;;;9.70;99.90;;;;;;4954648;28;20468;-85
2022/02/06 13:48:08;;;;;;;0.83;0.60;;;9.60;99.90;;;;;;4952483;29;20464;-82
2022/02/06 13:50:41;;;;;;;1.67;0.60;;;9.50;99.90;;;;;;4954671;29;20468;-85
2022/02/06 13:53:10;;;;;;;13.13;1.53;;;9.40;99.90;;;;;;4949419;29;20440;-83
2022/02/06 13:55:56;;;;;;;1.33;0.90;;;9.50;99.90;;;;;;4943376;28;20480;-85
2022/02/06 13:58:25;;;;;;;1.03;0.60;;;9.40;99.90;;;;;;4949753;29;20471;-85
2022/02/06 14:01:08;;;;;;;3.30;0.87;;;9.40;99.90;;;;;;4955949;29;20489;-83
2022/02/06 14:03:52;;;;;;;0.60;0.60;;;9.20;99.90;;;;;;4959549;28;20592;-84
2022/02/06 14:06:23;;;;;;;1.00;0.90;;;9.10;99.90;;;;;;4969019;29;20438;-85
2022/02/06 14:09:18;;;;;;;1.77;0.90;;;9.00;99.90;;;;;;4964978;29;20472;-83
2022/02/06 14:12:06;;;;;;;1.93;1.03;;;8.80;99.90;;;;;;4958262;29;20460;-85
2022/02/06 14:14:46;;;;;;;2.70;1.00;;;8.90;99.90;;;;;;4965705;28;20492;-84
2022/02/06 14:17:38;;;;;;;0.77;0.73;;;8.90;99.90;;;;;;4966558;29;20485;-86
2022/02/06 14:20:10;;;;;;;2.33;0.80;;;8.90;99.90;;;;;;4966329;29;20485;-86
2022/02/06 14:22:43;;;;;;;1.27;0.80;;;8.80;99.90;;;;;;4967997;29;20469;-84
2022/02/06 14:25:15;;;;;;;0.77;0.70;;;8.70;99.90;;;;;;4967904;29;20556;-85
2022/02/06 14:27:45;;;;;;;2.30;1.10;;;8.70;99.90;;;;;;4961019;28;20461;-86
2022/02/06 14:30:43;;;;;;;2.30;0.50;;;8.70;99.90;;;;;;4967628;28;21005;-85
2022/02/06 14:33:13;;;;;;;2.17;1.00;;;8.70;99.90;;;;;;4945764;29;20469;-84
2022/02/06 14:35:50;;;;;;;1.60;1.17;;;8.70;99.90;;;;;;4968244;28;20453;-86
2022/02/06 14:43:45;;;;;;;2.90;1.10;;;8.60;99.90;;;;;;4951654;28;20937;-86
2022/02/06 14:46:15;;;;;;;1.00;0.90;;;8.60;99.90;;;;;;4954551;29;20457;-85
2022/02/06 14:48:42;;;;;;;1.23;0.80;;;8.60;99.90;;;;;;4953862;29;20464;-86
2022/02/06 14:51:16;;;;;;;1.27;0.80;;;8.70;99.90;;;;;;4957381;28;20496;-85
2022/02/06 14:53:44;;;;;;;0.80;0.60;;;8.80;99.90;;;;;;4955808;29;20495;-84
2022/02/06 14:56:13;;;;;;;0.60;0.60;;;8.70;99.90;;;;;;4948736;28;21715;-86
2022/02/06 14:58:41;;;;;;;1.90;0.80;;;8.60;99.90;;;;;;4946917;28;20469;-86
2022/02/06 15:01:10;;;;;;;1.73;0.70;;;8.60;99.90;;;;;;4960602;28;20603;-85
2022/02/06 15:03:37;;;;;;;1.73;1.13;;;8.60;99.90;;;;;;4946569;28;20484;-86
2022/02/06 15:06:04;;;;;;;1.67;0.80;;;8.60;99.90;;;;;;4959757;29;20457;-87
2022/02/06 15:08:31;;;;;;;1.27;0.83;;;8.70;99.90;;;;;;4960604;29;20463;-85
2022/02/06 15:10:59;;;;;;;1.47;1.37;;;8.80;99.90;;;;;;4961448;28;20469;-85
2022/02/06 15:13:32;;;;;;;1.47;1.00;;;8.70;99.90;;;;;;4969864;29;20449;-86
2022/02/06 15:16:11;;;;;;;1.43;1.20;;;8.70;99.90;;;;;;4960896;28;20465;-83
2022/02/06 15:18:41;;;;;;;3.17;0.90;;;8.60;99.90;;;;;;4973895;28;21073;-84
2022/02/06 15:21:09;;;;;;;2.93;1.33;;;8.70;99.90;;;;;;5202774;23;21794;-82
2022/02/06 15:23:38;;;;;;;2.83;0.90;;;8.60;99.90;;;;;;4990529;28;20475;-86
2022/02/06 15:26:06;;;;;;;3.10;2.07;;;8.80;99.90;;;;;;4975627;28;20479;-83
2022/02/06 15:28:34;;;;;;;1.50;1.30;;;8.70;99.90;;;;;;4984311;28;20456;-85
2022/02/06 15:31:01;;;;;;;1.63;1.17;;;8.60;99.90;;;;;;4972235;28;20468;-84
2022/02/06 15:33:28;;;;;;;2.33;1.33;;;8.60;99.90;;;;;;4974683;28;20457;-83
2022/02/06 15:35:55;;;;;;;1.13;1.00;;;8.60;99.90;;;;;;4974673;28;20464;-84
2022/02/06 15:38:23;;;;;;;2.07;1.17;;;8.60;99.90;;;;;;4986926;28;20589;-83
2022/02/06 15:40:50;;;;;;;1.30;0.97;;;8.50;99.90;;;;;;4981742;28;20532;-83
2022/02/06 15:43:19;;;;;;;2.50;1.00;;;8.60;99.90;;;;;;4999882;28;20457;-84
2022/02/06 15:45:46;;;;;;;1.90;1.30;;;8.50;99.90;;;;;;4981136;28;20448;-85
2022/02/06 15:48:13;;;;;;;2.57;1.50;;;8.50;99.90;;;;;;4987353;28;20448;-82
2022/02/06 15:50:39;;;;;;;1.50;1.17;;;8.50;99.90;;;;;;4988392;28;20468;-83
2022/02/06 15:53:07;;;;;;;2.20;1.20;;;8.50;99.90;;;;;;4985166;28;20527;-81
2022/02/06 15:55:34;;;;;;;1.67;0.93;;;8.40;99.90;;;;;;4970408;28;20504;-81
2022/02/06 15:58:04;;;;;;;3.03;2.10;;;8.40;99.90;;;;;;4968444;28;20837;-82
2022/02/06 16:00:31;;;;;;;2.10;1.53;;;8.40;99.90;;;;;;4964037;28;20476;-84
2022/02/06 16:02:59;;;;;;;1.30;1.00;;;8.40;99.90;;;;;;4960769;28;21044;-84
2022/02/06 16:05:26;;;;;;;1.50;1.07;;;8.60;99.90;;;;;;4992935;28;20514;-83
2022/02/06 16:07:53;;;;;;;2.20;1.20;;;8.70;99.90;;;;;;4976051;28;20464;-83
2022/02/06 16:10:21;;;;;;;2.40;1.03;;;8.70;99.90;;;;;;4972645;28;20484;-87
2022/02/06 16:12:48;;;;;;;1.70;1.23;;;8.50;99.90;;;;;;4978344;28;20495;-85
2022/02/06 16:15:15;;;;;;;5.40;1.50;;;8.70;99.90;;;;;;4982140;28;20559;-87
2022/02/06 16:18:02;;;;;;;1.90;1.07;;;8.70;99.90;;;;;;4973384;28;21495;-86
2022/02/06 16:20:32;;;;;;;2.20;1.27;;;8.80;99.90;;;;;;4989779;28;21052;-85
2022/02/06 16:22:59;;;;;;;3.30;1.43;;;8.60;99.90;;;;;;4970418;28;20507;-84
2022/02/06 16:25:31;;;;;;;3.87;1.43;;;8.30;99.90;;;;;;4971416;28;20495;-84
2022/02/06 16:27:57;;;;;;;1.60;1.27;;;9.40;99.90;;;;;;4976391;28;20452;-84
2022/02/06 16:30:29;;;;;;;2.33;1.50;;;8.50;99.90;;;;;;4977747;28;20470;-84
2022/02/06 16:33:00;;;;;;;3.73;1.30;;;8.60;99.90;;;;;;4974912;28;20468;-84
2022/02/06 16:35:30;;;;;;;1.63;1.40;;;8.90;99.90;;;;;;4977881;28;20480;-84
2022/02/06 16:38:17;;;;;;;4.77;1.23;;;9.60;99.90;;;;;;4981010;28;20480;-84
2022/02/06 16:40:46;;;;;;;1.67;1.53;;;8.60;99.90;;;;;;4983790;28;20479;-82
2022/02/06 16:43:33;;;;;;;2.83;1.77;;;8.10;99.90;;;;;;4987687;28;20461;-86
2022/02/06 16:46:04;;;;;;;1.57;1.33;;;8.10;99.90;;;;;;4997240;28;20551;-84
2022/02/06 16:48:31;;;;;;;1.23;1.13;;;8.70;99.90;;;;;;4984220;28;20494;-81
2022/02/06 16:51:00;;;;;;;2.30;2.10;;;9.40;99.90;;;;;;4981950;28;20525;-85
2022/02/06 16:53:33;;;;;;;1.50;1.00;;;8.30;99.90;;;;;;4973929;28;20455;-84
2022/02/06 16:56:14;;;;;;;4.43;2.43;;;8.50;99.90;;;;;;4970790;28;20484;-85
2022/02/06 16:58:53;;;;;;;3.10;1.60;;;8.40;99.90;;;;;;4966850;28;20464;-83
2022/02/06 17:01:40;;;;;;;3.70;2.00;;;8.40;99.90;;;;;;4966428;28;20475;-86
2022/02/06 17:04:14;;;;;;;2.13;1.20;;;8.80;99.90;;;;;;4962663;28;20850;-86
2022/02/06 17:06:44;;;;;;;1.20;1.10;;;9.20;99.90;;;;;;4967640;28;20455;-85
2022/02/06 17:09:15;;;;;;;2.67;2.30;;;8.50;99.90;;;;;;4974503;28;20491;-85
2022/02/06 17:11:46;;;;;;;2.73;1.60;;;8.40;99.90;;;;;;4988365;28;20463;-85
2022/02/06 17:14:28;;;;;;;7.90;2.07;;;8.50;99.90;;;;;;4977774;28;20486;-87
2022/02/06 17:16:59;;;;;;;3.27;1.53;;;8.60;99.90;;;;;;4992208;28;20459;-86
2022/02/06 17:19:25;;;;;;;2.70;2.23;;;8.40;99.90;;;;;;4991796;28;20453;-85
2022/02/06 17:21:55;;;;;;;4.40;1.50;;;8.50;99.90;;;;;;4982257;28;20484;-85
2022/02/06 17:24:25;;;;;;;4.70;2.13;;;8.40;99.90;;;;;;4984458;28;20476;-84
2022/02/06 17:26:57;;;;;;;3.90;1.30;;;9.10;99.90;;;;;;4975059;28;20816;-85
2022/02/06 17:29:34;;;;;;;1.80;1.00;;;8.70;99.90;;;;;;4975605;28;20451;-84
2022/02/06 17:32:26;;;;;;;3.53;1.70;;;8.80;99.90;;;;;;4972307;28;20464;-83
2022/02/06 17:34:56;;;;;;;2.40;1.40;;;8.80;99.90;;;;;;4973945;28;20526;-86
2022/02/06 17:37:25;;;;;;;1.17;1.07;;;8.50;99.90;;;;;;4975478;28;20873;-85
2022/02/06 17:39:59;;;;;;;3.80;1.80;;;9.10;99.90;;;;;;4972297;28;20532;-84
2022/02/06 17:42:43;;;;;;;6.30;2.20;;;8.90;99.90;;;;;;4970084;28;20468;-84
2022/02/06 17:45:22;;;;;;;2.10;1.70;;;8.80;99.90;;;;;;4980998;28;20513;-82
2022/02/06 17:48:10;;;;;;;5.50;2.90;;;8.50;99.90;;;;;;4983105;28;21316;-83
2022/02/06 17:50:54;;;;;;;5.67;2.70;;;8.70;99.90;;;;;;4996673;28;20500;-85
2022/02/06 17:53:23;;;;;;;3.53;2.40;;;9.50;99.90;;;;;;4984367;28;20467;-84
2022/02/06 17:56:05;;;;;;;8.87;3.70;;;9.50;99.90;;;;;;4986673;28;20462;-85
2022/02/06 17:58:45;;;;;;;5.80;2.17;;;9.50;99.90;;;;;;4974194;28;20484;-84
2022/02/06 18:01:16;;;;;;;3.57;1.83;;;8.90;99.90;;;;;;4961529;28;20480;-85
2022/02/06 18:03:52;;;;;;;2.63;1.70;;;9.20;99.90;;;;;;4965381;28;20480;-86
2022/02/06 18:06:30;;;;;;;6.87;3.27;;;9.00;99.90;;;;;;4974618;28;20522;-82
2022/02/06 18:09:02;;;;;;;2.27;1.70;;;8.90;99.90;;;;;;4981782;28;20492;-83
2022/02/06 18:11:41;;;;;;;6.53;1.97;;;9.10;99.90;;;;;;4982855;28;20464;-86
2022/02/06 18:14:26;;;;;;;2.03;1.73;;;8.80;99.90;;;;;;4989621;28;20600;-88
2022/02/06 18:17:09;;;;;;;2.40;1.73;;;8.50;99.90;;;;;;4983019;28;20755;-85
2022/02/06 18:19:44;;;;;;;3.30;2.70;;;8.70;99.90;;;;;;4986056;28;20481;-86
2022/02/06 18:22:18;;;;;;;3.27;2.60;;;8.80;99.90;;;;;;4975100;28;20554;-85
2022/02/06 18:24:55;;;;;;;2.63;1.70;;;8.60;99.90;;;;;;4972955;28;20582;-86
2022/02/06 18:27:31;;;;;;;3.73;2.53;;;8.70;99.90;;;;;;4975695;28;20795;-84
2022/02/06 18:30:36;;;;;;;2.63;1.87;;;8.80;99.90;;;;;;4976848;28;21238;-85
2022/02/06 18:33:04;;;;;;;4.03;2.40;;;8.90;99.90;;;;;;4973998;28;20467;-85
2022/02/06 18:35:43;;;;;;;3.47;2.00;;;9.10;99.90;;;;;;4976756;28;20977;-85
2022/02/06 18:38:35;;;;;;;5.47;3.93;;;8.70;99.90;;;;;;4977068;28;20461;-85
2022/02/06 18:41:08;;;;;;;2.47;2.10;;;9.40;99.90;;;;;;4975163;28;20494;-86
2022/02/06 18:43:44;;;;;;;4.70;3.20;;;8.80;99.90;;;;;;4974314;28;20511;-85
2022/02/06 18:46:14;;;;;;;3.70;2.13;;;8.60;99.90;;;;;;4978636;28;20456;-84
2022/02/06 18:48:50;;;;;;;5.03;3.80;;;8.40;99.90;;;;;;4974795;28;20459;-85
2022/02/06 18:51:20;;;;;;;7.33;5.67;;;9.10;99.90;;;;;;4984019;28;20468;-86
2022/02/06 18:53:58;;;;;;;3.93;2.60;;;8.90;99.90;;;;;;4991581;28;20487;-85
2022/02/06 18:56:36;;;;;;;4.70;3.17;;;8.80;99.90;;;;;;4993998;28;20463;-85
2022/02/06 18:59:16;;;;;;;1.40;1.30;;;8.40;99.90;;;;;;4972624;28;20526;-83
2022/02/06 19:02:07;;;;;;;1.27;0.63;;;9.10;99.90;;;;;;4980588;28;20490;-85
2022/02/06 19:04:39;;;;;;;2.40;1.20;;;8.50;99.90;;;;;;4963188;28;20478;-86
2022/02/06 19:07:34;;;;;;;1.33;0.60;;;7.70;99.90;;;;;;4965261;28;20561;-87
2022/02/06 19:10:05;;;;;;;1.30;1.00;;;7.90;99.90;;;;;;4976150;28;20467;-86
2022/02/06 19:12:40;;;;;;;0.70;0.70;;;7.40;99.90;;;;;;4976759;28;20457;-85
2022/02/06 19:15:19;;;;;;;1.00;0.90;;;7.20;99.90;;;;;;4965407;28;20490;-84
2022/02/06 19:17:52;;;;;;;1.13;1.03;;;7.10;99.90;;;;;;4965760;28;20556;-85
2022/02/06 19:20:42;;;;;;;1.63;0.60;;;6.90;99.90;;;;;;4956810;28;21100;-85
2022/02/06 19:23:34;;;;;;;0.90;0.90;;;6.80;99.90;;;;;;4964302;28;20483;-85
2022/02/06 19:26:10;;;;;;;2.40;0.60;;;7.10;99.90;;;;;;4982262;28;20491;-85
2022/02/06 19:28:52;;;;;;;2.10;0.97;;;6.90;99.90;;;;;;4973257;28;20518;-85
2022/02/06 19:31:32;;;;;;;1.37;0.97;;;7.40;99.90;;;;;;4972077;28;20466;-84
2022/02/06 19:34:13;;;;;;;2.27;1.63;;;7.60;99.90;;;;;;4974240;28;20484;-84
2022/02/06 19:36:42;;;;;;;2.30;1.27;;;7.40;99.90;;;;;;4972586;28;20460;-84
2022/02/06 19:39:19;;;;;;;5.03;2.17;;;7.50;99.90;;;;;;4971969;28;20483;-85
2022/02/06 19:42:06;;;;;;;1.33;1.00;;;6.90;99.90;;;;;;4976971;28;20478;-85
2022/02/06 19:44:45;;;;;;;2.80;1.70;;;6.90;99.90;;;;;;4977508;28;20566;-83
2022/02/06 19:47:25;;;;;;;2.67;1.17;;;7.10;99.90;;;;;;4989958;28;20564;-84
2022/02/06 19:50:27;;;;;;;3.00;1.40;;;6.90;99.90;;;;;;4973384;28;20464;-83
2022/02/06 19:53:24;;;;;;;2.17;1.67;;;7.10;99.90;;;;;;4975090;28;20467;-84
2022/02/06 19:55:51;;;;;;;2.80;1.13;;;7.10;99.90;;;;;;4980335;28;20789;-85
2022/02/06 19:58:21;;;;;;;1.60;1.37;;;6.90;99.90;;;;;;4970583;28;20921;-85
2022/02/06 20:00:56;;;;;;;3.30;1.87;;;7.00;99.90;;;;;;4975164;28;20526;-84
2022/02/06 20:03:31;;;;;;;3.80;1.30;;;6.90;99.90;;;;;;4974901;28;20456;-84
2022/02/06 20:06:13;;;;;;;1.47;0.90;;;7.00;99.90;;;;;;4972613;28;20466;-86
2022/02/06 20:09:00;;;;;;;2.00;1.13;;;7.00;99.90;;;;;;4976125;28;20460;-87
2022/02/06 20:11:47;;;;;;;1.00;0.90;;;6.60;99.90;;;;;;4977510;28;20563;-86
2022/02/06 20:14:18;;;;;;;2.53;1.10;;;7.00;99.90;;;;;;4969666;28;20482;-85
2022/02/06 20:17:29;;;;;;;1.53;0.70;;;7.90;99.90;;;;;;4962129;28;20477;-83
2022/02/06 20:20:29;;;;;;;1.90;1.20;;;6.50;99.90;;;;;;4948896;28;20540;-86
2022/02/06 20:23:20;;;;;;;1.33;1.10;;;6.90;99.90;;;;;;4957796;28;20570;-84
2022/02/06 20:26:15;;;;;;;1.43;1.03;;;7.10;99.90;;;;;;4970878;28;20462;-86
2022/02/06 20:28:52;;;;;;;1.03;0.93;;;6.70;99.90;;;;;;4986913;28;20452;-85
2022/02/06 20:31:39;;;;;;;1.57;1.10;;;7.40;99.90;;;;;;5006621;28;20483;-85
2022/02/06 20:34:25;;;;;;;1.27;1.17;;;7.00;99.90;;;;;;4990071;28;20481;-85
2022/02/06 20:37:08;;;;;;;1.93;1.20;;;7.00;99.90;;;;;;4995664;28;20475;-82
2022/02/06 20:43:25;;;;;;;1.03;1.03;;;7.20;99.90;;;;;;4990210;28;20515;-86
2022/02/06 20:45:59;;;;;;;2.00;1.30;;;7.10;99.90;;;;;;4999432;28;20457;-83
2022/02/06 20:48:46;;;;;;;2.30;2.10;;;7.70;99.90;;;;;;4969397;28;20550;-82
2022/02/06 20:51:14;;;;;;;3.80;1.57;;;7.10;99.90;;;;;;4977796;28;20456;-84
2022/02/06 20:53:53;;;;;;;2.33;1.47;;;8.10;99.90;;;;;;4975731;28;20582;-84
2022/02/06 20:56:52;;;;;;;2.87;1.07;;;6.70;99.90;;;;;;4991516;28;20448;-84
2022/02/06 20:59:36;;;;;;;2.47;1.27;;;7.10;99.90;;;;;;4972922;28;20541;-83
2022/02/06 21:02:16;;;;;;;2.00;1.10;;;7.60;99.90;;;;;;4982168;28;20483;-82
2022/02/06 21:04:48;;;;;;;1.10;0.93;;;7.10;99.90;;;;;;4977242;28;20519;-83
2022/02/06 21:07:15;;;;;;;1.03;0.93;;;7.70;99.90;;;;;;4976740;28;20459;-84